Latest Weather Observations for Walpole North

IDW60801

Issued at 5:02 pm WST Monday 6 July 2015 (issued every 30 minutes, with the page automatically refreshed every 10 minutes)

About weather observations | Map of weather stations | Latest weather observations for WA | Other Formats
Station Details ID: 009998 Name: NORTH WALPOLE Lat: -34.95 Lon: 116.72 Height: 73.0 m
Data from the previous 72 hours. | See also: Recent months at Walpole North
Date/Time
WST
Temp
°C
App
Temp
°C
Dew
Point
Rel
Hum
%
Delta-T
°C
Wind Press
QNH
hPa
Press
MSL
hPa
Rain
since 9 am
mm
Dir
 
Spd
km/h
Gust
km/h
Spd
kts
Gust
kts
06/05:00pm 15.5 13.9 12.8 84 1.5 N 13 20 7 11 1016.6 1016.6 0.0
06/04:30pm 16.1 14.6 13.0 82 1.7 NNW 13 20 7 11 1016.6 1016.6 0.0
06/04:00pm 16.1 15.0 13.0 82 1.7 NNW 11 26 6 14 1016.7 1016.7 0.0
06/03:30pm 16.3 14.5 13.2 82 1.7 NNW 15 24 8 13 1016.9 1017.0 0.0
06/03:00pm 16.2 14.6 12.9 81 1.8 N 13 20 7 11 1016.9 1017.0 0.0
06/02:30pm 16.4 14.5 12.9 80 2.0 NNW 15 26 8 14 1016.7 1016.7 0.0
06/02:00pm 16.8 14.7 13.7 82 1.8 NNW 17 24 9 13 1016.8 1016.9 0.0
06/01:30pm 16.4 14.6 12.2 76 2.3 NNW 13 28 7 15 1017.2 1017.3 0.0
06/01:00pm 16.6 14.2 12.6 77 2.2 NNW 17 33 9 18 1017.6 1017.7 0.0
06/12:30pm 17.0 14.8 12.1 73 2.7 NNW 15 28 8 15 1017.8 1017.9 0.0
06/12:00pm 17.1 15.0 12.4 74 2.6 NNW 15 24 8 13 1018.3 1018.4 0.0
06/11:30am 17.1 14.8 11.8 71 2.9 NNW 15 24 8 13 1018.8 1018.9 0.0
06/11:00am 16.6 14.2 11.5 72 2.8 N 15 28 8 15 1019.2 1019.3 0.0
06/10:30am 15.9 14.0 11.7 76 2.3 N 13 22 7 12 1019.5 1019.6 0.0
06/10:00am 15.0 13.1 10.6 75 2.3 N 11 20 6 11 1019.7 1019.8 0.0
06/09:30am 14.5 12.4 9.7 73 2.5 NNE 11 19 6 10 1019.7 1019.8 0.0
06/09:00am 13.5 11.6 9.0 74 2.3 N 9 19 5 10 1019.7 1019.8 -
06/08:30am 12.7 10.8 9.0 78 1.9 N 9 17 5 9 1019.7 1019.8 -
06/08:00am 11.7 10.3 9.6 87 1.1 N 7 17 4 9 1019.6 1019.7 -
06/07:30am 9.9 9.5 8.2 89 0.8 CALM 0 0 0 0 1019.5 1019.6 -
06/07:00am 9.7 9.2 7.8 88 0.9 CALM 0 0 0 0 1019.3 1019.4 0.0
06/06:30am 9.2 8.6 7.3 88 0.9 CALM 0 0 0 0 1019.1 1019.2 0.0
06/06:00am 9.6 9.0 7.5 87 1.0 CALM 0 0 0 0 1019.1 1019.2 0.0
06/05:30am 10.0 9.1 7.8 86 1.1 NW 2 7 1 4 1019.1 1019.2 0.0
06/05:00am 9.8 8.7 7.1 83 1.3 NNW 2 7 1 4 1019.1 1019.2 0.0
06/04:30am 11.0 8.7 7.3 78 1.8 NW 9 13 5 7 1019.1 1019.2 0.0
06/04:00am 13.0 10.3 9.1 77 2.0 NW 13 24 7 13 1019.0 1019.1 0.0
06/03:30am 11.9 9.2 8.9 82 1.5 NW 13 20 7 11 1019.2 1019.3 0.0
06/03:00am 12.3 8.5 9.1 81 1.6 NNW 19 26 10 14 1019.2 1019.3 0.0
06/02:30am 10.6 8.5 8.2 85 1.2 WNW 9 13 5 7 1019.3 1019.4 0.0
06/02:00am 10.6 8.9 8.4 86 1.1 NW 7 13 4 7 1019.4 1019.5 0.0
06/01:30am 10.8 9.2 8.6 86 1.1 NW 7 11 4 6 1019.5 1019.6 0.0
06/01:00am 10.9 10.6 8.5 85 1.2 CALM 0 0 0 0 1019.6 1019.7 0.0
06/12:30am 11.6 10.0 8.8 83 1.4 NW 7 11 4 6 1019.7 1019.8 0.0
06/12:00am 12.0 9.1 9.6 85 1.2 NNW 15 19 8 10 1019.9 1019.9 0.0
 
Date/Time
WST
Temp
°C
App
Temp
°C
Dew
Point
Rel
Hum
%
Delta-T
°C
Wind Press
QNH
hPa
Press
MSL
hPa
Rain
since 9 am
mm
Dir
 
Spd
km/h
Gust
km/h
Spd
kts
Gust
kts
05/11:30pm 11.2 8.5 9.1 87 1.1 NW 13 20 7 11 1020.1 1020.1 0.0
05/11:00pm 11.0 8.3 9.1 88 0.9 NW 13 17 7 9 1020.2 1020.2 0.0
05/10:30pm 10.7 9.1 8.6 87 1.0 NW 7 11 4 6 1020.2 1020.2 0.0
05/10:00pm 11.8 9.9 9.0 83 1.4 NNW 9 13 5 7 1020.3 1020.3 0.0
05/09:30pm 12.9 10.4 9.7 81 1.6 NNW 13 19 7 10 1020.1 1020.1 0.0
05/09:00pm 12.6 9.8 8.5 76 2.0 NNW 13 24 7 13 1020.1 1020.1 0.0
05/08:30pm 12.3 10.9 9.0 80 1.7 NNW 6 17 3 9 1020.2 1020.2 0.0
05/08:00pm 11.7 11.2 7.8 77 1.9 CALM 0 0 0 0 1020.1 1020.1 0.0
05/07:30pm 12.4 11.3 8.3 76 2.0 NNW 4 11 2 6 1020.2 1020.2 0.0
05/07:00pm 12.9 11.3 8.2 73 2.3 NNW 6 9 3 5 1020.1 1020.1 0.0
05/06:30pm 13.8 11.5 9.0 73 2.4 NNW 11 13 6 7 1019.9 1019.9 0.0
05/06:00pm 14.0 12.2 9.6 75 2.3 NW 9 13 5 7 1019.6 1019.7 0.0
05/05:30pm 14.1 12.4 9.7 75 2.3 WNW 9 11 5 6 1019.6 1019.7 0.0
05/05:00pm 14.1 12.7 9.7 75 2.3 WNW 7 11 4 6 1019.5 1019.6 0.0
05/04:30pm 14.3 12.5 9.5 73 2.5 WNW 9 11 5 6 1019.4 1019.5 0.0
05/04:00pm 15.4 13.4 10.2 71 2.7 WNW 11 15 6 8 1019.3 1019.4 0.0
05/03:30pm 15.2 12.3 9.8 70 2.8 NW 15 20 8 11 1019.1 1019.2 0.0
05/03:00pm 16.3 14.0 10.6 69 3.0 NW 13 22 7 12 1019.0 1019.1 0.0
05/02:30pm 15.8 12.5 9.7 67 3.2 NW 17 24 9 13 1018.8 1018.9 0.0
05/02:00pm 16.2 13.3 9.6 65 3.4 NW 15 20 8 11 1018.8 1018.9 0.0
05/01:30pm 15.2 12.8 10.2 72 2.6 WNW 13 19 7 10 1019.1 1019.2 0.0
05/01:00pm 16.1 13.2 9.8 66 3.3 WNW 15 20 8 11 1019.2 1019.3 0.0
05/12:30pm 16.6 14.2 10.2 66 3.4 WNW 13 17 7 9 1019.5 1019.6 0.0
05/12:00pm 15.7 13.6 9.6 67 3.2 WNW 11 19 6 10 1019.9 1019.9 0.0
05/11:30am 16.3 14.8 10.6 69 3.0 WNW 9 17 5 9 1020.4 1020.4 0.0
05/11:00am 14.9 13.3 10.1 73 2.5 WNW 9 13 5 7 1020.5 1020.5 0.0
05/10:30am 14.6 12.2 10.2 75 2.3 NW 13 17 7 9 1020.8 1020.8 0.0
05/10:00am 13.2 11.1 9.8 80 1.7 NW 11 15 6 8 1020.8 1020.8 0.0
05/09:30am 12.7 11.2 10.6 87 1.1 NW 9 13 5 7 1020.7 1020.7 0.0
05/09:00am 11.2 11.2 9.8 91 0.7 CALM 0 0 0 0 1020.5 1020.5 4.8
05/08:30am 10.7 9.7 8.8 88 0.9 W 4 15 2 8 1020.4 1020.4 4.8
05/08:00am 11.3 11.1 9.2 87 1.0 CALM 0 0 0 0 1020.2 1020.2 4.8
05/07:30am 11.2 9.4 9.3 88 1.0 NW 9 11 5 6 1020.0 1020.0 4.8
05/07:00am 11.2 9.4 9.6 90 0.8 NW 9 11 5 6 1019.7 1019.8 4.8
05/06:30am 10.9 8.8 9.7 92 0.6 NNW 11 15 6 8 1019.5 1019.6 4.8
05/06:00am 11.0 9.3 9.9 93 0.6 NW 9 13 5 7 1019.3 1019.4 4.8
05/05:30am 10.2 9.6 9.1 93 0.5 NW 2 9 1 5 1019.1 1019.2 4.8
05/05:00am 10.5 10.4 9.4 93 0.5 CALM 0 0 0 0 1019.0 1019.1 4.8
05/04:30am 10.8 9.4 9.7 93 0.6 WNW 7 13 4 7 1018.9 1019.0 4.8
05/04:00am 11.3 9.8 10.4 94 0.5 NW 9 11 5 6 1018.9 1019.0 4.8
05/03:30am 11.1 10.0 10.5 96 0.3 NNW 7 9 4 5 1019.0 1019.1 4.8
05/03:00am 10.7 9.4 10.1 96 0.3 WNW 7 9 4 5 1019.1 1019.2 4.8
05/02:30am 10.9 9.7 10.4 97 0.3 WNW 7 9 4 5 1019.2 1019.3 4.8
05/02:00am 11.2 10.2 10.9 98 0.2 WNW 7 9 4 5 1019.0 1019.1 4.6
05/01:30am 11.9 11.3 11.7 99 0.1 WNW 6 9 3 5 1019.0 1019.1 4.6
05/01:00am 11.7 12.2 11.5 99 0.1 CALM 0 0 0 0 1019.0 1019.1 4.6
05/12:30am 12.0 12.2 11.8 99 0.1 WNW 2 7 1 4 1019.1 1019.2 4.6
05/12:00am 12.2 12.8 12.0 99 0.1 CALM 0 0 0 0 1019.2 1019.3 4.6
 
Date/Time
WST
Temp
°C
App
Temp
°C
Dew
Point
Rel
Hum
%
Delta-T
°C
Wind Press
QNH
hPa
Press
MSL
hPa
Rain
since 9 am
mm
Dir
 
Spd
km/h
Gust
km/h
Spd
kts
Gust
kts
04/11:30pm 12.9 12.0 12.7 99 0.1 WSW 9 13 5 7 1019.1 1019.2 4.6
04/11:00pm 13.4 13.1 13.2 99 0.1 WSW 7 15 4 8 1018.9 1019.0 4.6
04/10:30pm 13.5 12.8 13.3 99 0.1 W 9 17 5 9 1018.7 1018.8 4.6
04/10:00pm 13.5 10.7 13.3 99 0.1 NW 20 28 11 15 1018.4 1018.5 3.2
04/09:30pm 13.3 11.6 12.4 94 0.5 WNW 13 20 7 11 1018.4 1018.5 3.0
04/09:00pm 13.8 10.4 11.1 84 1.4 WNW 20 30 11 16 1018.3 1018.4 0.6
04/08:30pm 15.2 11.0 11.0 76 2.2 NW 24 32 13 17 1017.7 1017.8 0.0
04/08:00pm 15.3 11.4 10.9 75 2.3 NW 22 35 12 19 1017.8 1017.9 0.0
04/07:30pm 15.2 11.2 10.6 74 2.4 NW 22 32 12 17 1017.7 1017.8 0.0
04/07:00pm 15.2 11.7 10.8 75 2.3 NW 20 28 11 15 1017.9 1018.0 0.0
04/06:30pm 15.2 11.7 10.8 75 2.3 NW 20 33 11 18 1017.8 1017.9 0.0
04/06:00pm 15.0 12.0 10.6 75 2.3 NW 17 24 9 13 1017.8 1017.9 0.0
04/05:30pm 15.4 12.0 10.4 72 2.6 NW 19 26 10 14 1017.9 1018.0 0.0
04/05:00pm 15.8 12.1 10.3 70 2.9 NW 20 26 11 14 1017.9 1018.0 0.0
04/04:30pm 16.0 12.4 10.7 71 2.8 NW 20 30 11 16 1017.7 1017.8 0.0
04/04:00pm 16.7 13.7 10.8 68 3.2 WNW 17 28 9 15 1018.2 1018.3 0.0
04/03:30pm 17.0 13.5 10.8 67 3.3 WNW 20 43 11 23 1018.0 1018.1 0.0
04/03:00pm 17.5 13.2 10.9 65 3.6 WNW 24 37 13 20 1018.0 1018.1 0.0
04/02:30pm 17.8 13.9 12.0 69 3.2 W 24 39 13 21 1017.8 1017.9 0.0
04/02:00pm 17.3 14.0 11.6 69 3.1 WNW 20 30 11 16 1017.9 1018.0 0.0
04/01:30pm 17.3 14.6 11.6 69 3.1 WNW 17 26 9 14 1018.1 1018.2 0.0
04/01:00pm 17.5 14.3 11.8 69 3.1 WNW 20 37 11 20 1018.3 1018.4 0.0
04/12:30pm 17.6 14.4 11.4 67 3.4 WNW 19 32 10 17 1018.6 1018.7 0.0
04/12:00pm 17.4 13.7 11.4 68 3.3 WNW 22 33 12 18 1019.0 1019.1 0.0
04/11:30am 17.8 14.8 12.5 71 3.0 NW 20 33 11 18 1019.4 1019.5 0.0
04/11:00am 16.7 13.4 11.6 72 2.8 NW 20 28 11 15 1019.7 1019.8 0.0
04/10:30am 16.2 12.5 11.4 73 2.6 NW 22 32 12 17 1020.2 1020.2 0.0
04/10:00am 15.4 12.6 11.4 77 2.1 WNW 17 24 9 13 1020.6 1020.6 0.0
04/09:30am 15.1 12.5 10.7 75 2.3 NW 15 20 8 11 1020.2 1020.2 0.0
04/09:00am 14.9 12.4 11.1 78 2.0 NNW 15 20 8 11 1020.1 1020.1 1.6
04/08:30am 14.2 13.0 11.7 85 1.3 NNW 9 15 5 8 1020.1 1020.1 1.6
04/08:00am 14.1 12.0 12.3 89 1.0 NW 15 20 8 11 1020.1 1020.1 1.6
04/07:30am 13.7 11.5 13.2 97 0.3 NW 17 20 9 11 1020.2 1020.2 1.6
04/07:00am 13.6 13.0 13.4 99 0.1 WNW 9 11 5 6 1020.0 1020.0 1.6
04/06:30am 13.6 12.6 13.4 99 0.1 WNW 11 15 6 8 1020.0 1020.0 1.6
04/06:00am 13.4 11.9 13.2 99 0.1 NW 13 19 7 10 1019.7 1019.8 1.6
04/05:30am 13.1 12.9 13.1 100 0.0 NW 6 9 3 5 1019.7 1019.8 1.6
04/05:00am 12.9 13.7 12.7 99 0.1 CALM 0 0 0 0 1020.0 1020.0 1.6
04/04:30am 12.9 13.7 12.7 99 0.1 CALM 0 0 0 0 1020.1 1020.1 1.6
04/04:00am 14.0 12.4 14.0 100 0.0 NNW 15 20 8 11 1020.0 1020.0 1.6
04/03:30am 13.3 13.0 13.3 100 0.0 NW 7 13 4 7 1020.4 1020.4 1.6
04/03:00am 13.4 12.4 13.4 100 0.0 NNW 11 15 6 8 1020.6 1020.6 1.6
04/02:30am 12.9 12.5 12.9 100 0.0 NW 7 11 4 6 1021.0 1021.0 1.6
04/02:00am 13.5 12.5 13.5 100 0.0 NW 11 15 6 8 1021.0 1021.0 1.6
04/01:30am 13.5 12.5 13.5 100 0.0 NW 11 15 6 8 1021.1 1021.1 1.6
04/01:00am 13.7 11.6 13.7 100 0.0 NW 17 24 9 13 1021.3 1021.3 1.6
04/12:30am 13.6 12.3 13.6 100 0.0 NW 13 17 7 9 1021.4 1021.4 1.4
04/12:00am 13.7 12.8 13.7 100 0.0 NW 11 15 6 8 1021.5 1021.5 1.4
 
Date/Time
WST
Temp
°C
App
Temp
°C
Dew
Point
Rel
Hum
%
Delta-T
°C
Wind Press
QNH
hPa
Press
MSL
hPa
Rain
since 9 am
mm
Dir
 
Spd
km/h
Gust
km/h
Spd
kts
Gust
kts
03/11:30pm 13.4 13.1 13.4 100 0.0 WNW 7 9 4 5 1021.6 1021.6 1.4
03/11:00pm 13.5 11.4 13.5 100 0.0 NW 17 20 9 11 1021.5 1021.5 1.4
03/10:30pm 13.6 12.3 13.6 100 0.0 NW 13 17 7 9 1021.7 1021.7 1.4
03/10:00pm 14.0 13.2 14.0 100 0.0 NW 11 17 6 9 1021.6 1021.6 1.4
03/09:30pm 14.2 13.1 14.2 100 0.0 NW 13 19 7 10 1021.8 1021.8 1.4
03/09:00pm 14.4 13.7 14.4 100 0.0 NW 11 13 6 7 1021.8 1021.8 1.4
03/08:30pm 14.0 13.2 14.0 100 0.0 NNW 11 13 6 7 1021.8 1021.8 1.4
03/08:00pm 14.5 13.1 14.5 100 0.0 NW 15 20 8 11 1021.9 1021.9 1.4
03/07:30pm 14.1 13.7 14.1 100 0.0 NW 9 13 5 7 1022.0 1022.0 1.4
03/07:00pm 14.5 13.0 14.3 99 0.1 NW 15 19 8 10 1021.9 1021.9 1.2
03/06:30pm 14.9 15.1 14.7 99 0.1 WNW 7 13 4 7 1021.9 1021.9 1.0
03/06:00pm 15.0 13.7 14.8 99 0.1 WNW 15 17 8 9 1021.6 1021.6 0.6
03/05:30pm 15.2 15.0 14.7 97 0.3 WSW 9 15 5 8 1021.4 1021.4 0.6

Other Formats:

Comma delimited format used in spreadsheet applications
http://www.bom.gov.au/fwo/IDW60801/IDW60801.95647.axf

JavaScript Object Notation format (JSON) in row-major order
http://www.bom.gov.au/fwo/IDW60801/IDW60801.95647.json